Seiyu Maru — JD3189 — position and weather

sailwx.info

Track history (hours):
 
Tides and Currents Weather Stations Pressure Air Temp Water Temp Dewpoint Dewpoint Depression Visibility Wind Speed Wind Dir Waves Ship Positions

Seiyu Maru

Last reported at 2016-Feb-06 12:28 UTC. Time now 2016-Feb-06 18:44 UTC.
Position N 34°02' E 134°60'.

Length 75 m; draft 4.5 m.

Type: Cargo ship. MMSI: 431002433.

Date/timePositionNaut miles runAvg speedWind from/ knotsBaromVisibWave heightAir tempDewpointWater temp
2016-Feb-06 12:28N 34°02' E 134°60'1211.9
2016-Feb-06 11:29N 34°13' E 134°59'1110.8
2016-Feb-06 10:27N 34°24' E 135°03'1011.7
2016-Feb-06 09:33N 34°31' E 135°13'1110.9
2016-Feb-06 08:33N 34°38' E 135°23'1 1.4
2016-Feb-06 07:33N 34°38' E 135°25'0 0.0
2016-Feb-06 06:33N 34°38' E 135°25'0 0.0
2016-Feb-06 05:33N 34°38' E 135°25'0 0.0
2016-Feb-06 04:33N 34°38' E 135°25'0 0.0
2016-Feb-06 03:33N 34°38' E 135°25'0 0.0
2016-Feb-06 02:33N 34°38' E 135°25'0 0.0
2016-Feb-06 01:33N 34°38' E 135°25'0 0.0
2016-Feb-06 00:33N 34°38' E 135°25'0 0.0
2016-Feb-05 23:33N 34°38' E 135°25'0 0.4
2016-Feb-05 22:33N 34°37' E 135°24'3 0.5
2016-Feb-05 16:32N 34°39' E 135°28'0 0.0
2016-Feb-05 15:33N 34°39' E 135°28'0 0.0
2016-Feb-05 14:33N 34°39' E 135°28'0 0.0
2016-Feb-05 13:33N 34°39' E 135°28'0 0.0
2016-Feb-05 12:32N 34°39' E 135°28'0 0.0
2016-Feb-05 11:29N 34°39' E 135°28'0 0.0
2016-Feb-05 07:08N 34°39' E 135°28'0 0.0
2016-Feb-05 06:33N 34°39' E 135°28'0 0.0
2016-Feb-05 05:33N 34°39' E 135°28'0 0.0
2016-Feb-05 04:33N 34°39' E 135°28'9 9.0
2016-Feb-05 03:33N 34°36' E 135°17'1211.9
2016-Feb-05 02:34N 34°36' E 135°03'  
Track history (hours):
 
Tides and Currents Weather Stations Pressure Air Temp Water Temp Dewpoint Dewpoint Depression Visibility Wind Speed Wind Dir Waves Ship Positions

Seiyu Maru

Last reported at 2016-Feb-06 12:28 UTC. Time now 2016-Feb-06 18:44 UTC.
Position N 34°02' E 134°60'.

Length 75 m; draft 4.5 m.

Type: Cargo ship. MMSI: 431002433.

Date/timePositionNaut miles runAvg speedWind from/ knotsBaromVisibWave heightAir tempDewpointWater temp
2016-Feb-06 12:28N 34°02' E 134°60'1211.9
2016-Feb-06 11:29N 34°13' E 134°59'1110.8
2016-Feb-06 10:27N 34°24' E 135°03'1011.7
2016-Feb-06 09:33N 34°31' E 135°13'1110.9
2016-Feb-06 08:33N 34°38' E 135°23'1 1.4
2016-Feb-06 07:33N 34°38' E 135°25'0 0.0
2016-Feb-06 06:33N 34°38' E 135°25'0 0.0
2016-Feb-06 05:33N 34°38' E 135°25'0 0.0
2016-Feb-06 04:33N 34°38' E 135°25'0 0.0
2016-Feb-06 03:33N 34°38' E 135°25'0 0.0
2016-Feb-06 02:33N 34°38' E 135°25'0 0.0
2016-Feb-06 01:33N 34°38' E 135°25'0 0.0
2016-Feb-06 00:33N 34°38' E 135°25'0 0.0
2016-Feb-05 23:33N 34°38' E 135°25'0 0.4
2016-Feb-05 22:33N 34°37' E 135°24'3 0.5
2016-Feb-05 16:32N 34°39' E 135°28'0 0.0
2016-Feb-05 15:33N 34°39' E 135°28'0 0.0
2016-Feb-05 14:33N 34°39' E 135°28'0 0.0
2016-Feb-05 13:33N 34°39' E 135°28'0 0.0
2016-Feb-05 12:32N 34°39' E 135°28'0 0.0
2016-Feb-05 11:29N 34°39' E 135°28'0 0.0
2016-Feb-05 07:08N 34°39' E 135°28'0 0.0
2016-Feb-05 06:33N 34°39' E 135°28'0 0.0
2016-Feb-05 05:33N 34°39' E 135°28'0 0.0
2016-Feb-05 04:33N 34°39' E 135°28'9 9.0
2016-Feb-05 03:33N 34°36' E 135°17'1211.9
2016-Feb-05 02:34N 34°36' E 135°03'  

Dump ship's entire track history